sensor_id;sensor_type;location;lat;lon;timestamp;P1;durP1;ratioP1;P2;durP2;ratioP2
73382;SDS011;61600;48.126;11.542;2023-05-08T00:01:42;10.35;;;6.10;;
73382;SDS011;61600;48.126;11.542;2023-05-08T00:04:08;9.48;;;6.15;;
73382;SDS011;61600;48.126;11.542;2023-05-08T00:06:34;9.00;;;5.85;;
73382;SDS011;61600;48.126;11.542;2023-05-08T00:09:00;9.23;;;5.82;;
73382;SDS011;61600;48.126;11.542;2023-05-08T00:11:26;10.52;;;6.13;;
73382;SDS011;61600;48.126;11.542;2023-05-08T00:13:52;12.23;;;6.25;;
73382;SDS011;61600;48.126;11.542;2023-05-08T00:16:18;9.65;;;5.80;;
73382;SDS011;61600;48.126;11.542;2023-05-08T00:18:43;9.07;;;5.60;;
73382;SDS011;61600;48.126;11.542;2023-05-08T00:21:09;10.35;;;5.60;;
73382;SDS011;61600;48.126;11.542;2023-05-08T00:23:35;10.57;;;6.15;;
73382;SDS011;61600;48.126;11.542;2023-05-08T00:26:00;9.55;;;6.10;;
73382;SDS011;61600;48.126;11.542;2023-05-08T00:28:26;10.07;;;6.18;;
73382;SDS011;61600;48.126;11.542;2023-05-08T00:30:52;11.70;;;6.28;;
73382;SDS011;61600;48.126;11.542;2023-05-08T00:33:18;10.43;;;5.65;;
73382;SDS011;61600;48.126;11.542;2023-05-08T00:35:44;9.57;;;5.68;;
73382;SDS011;61600;48.126;11.542;2023-05-08T00:38:09;10.80;;;6.30;;
73382;SDS011;61600;48.126;11.542;2023-05-08T00:40:35;9.02;;;5.95;;
73382;SDS011;61600;48.126;11.542;2023-05-08T00:43:01;9.57;;;6.40;;
73382;SDS011;61600;48.126;11.542;2023-05-08T00:45:29;10.68;;;6.32;;
73382;SDS011;61600;48.126;11.542;2023-05-08T00:47:58;9.15;;;6.00;;
73382;SDS011;61600;48.126;11.542;2023-05-08T00:50:25;9.55;;;6.50;;
73382;SDS011;61600;48.126;11.542;2023-05-08T00:52:51;9.57;;;6.18;;
73382;SDS011;61600;48.126;11.542;2023-05-08T00:55:18;9.38;;;6.05;;
73382;SDS011;61600;48.126;11.542;2023-05-08T00:57:44;8.68;;;5.70;;
73382;SDS011;61600;48.126;11.542;2023-05-08T01:00:12;11.77;;;7.07;;
73382;SDS011;61600;48.126;11.542;2023-05-08T01:02:40;10.52;;;6.00;;
73382;SDS011;61600;48.126;11.542;2023-05-08T01:05:06;11.02;;;6.13;;
73382;SDS011;61600;48.126;11.542;2023-05-08T01:07:32;10.65;;;6.25;;
73382;SDS011;61600;48.126;11.542;2023-05-08T01:09:58;11.10;;;6.13;;
73382;SDS011;61600;48.126;11.542;2023-05-08T01:12:38;11.15;;;6.47;;
73382;SDS011;61600;48.126;11.542;2023-05-08T01:15:20;11.48;;;6.95;;
73382;SDS011;61600;48.126;11.542;2023-05-08T01:18:10;9.45;;;6.35;;
73382;SDS011;61600;48.126;11.542;2023-05-08T01:23:23;10.50;;;6.55;;
73382;SDS011;61600;48.126;11.542;2023-05-08T01:31:42;9.63;;;6.53;;
73382;SDS011;61600;48.126;11.542;2023-05-08T01:37:05;12.52;;;6.78;;
73382;SDS011;61600;48.126;11.542;2023-05-08T01:42:23;11.43;;;7.05;;
73382;SDS011;61600;48.126;11.542;2023-05-08T01:45:02;11.27;;;6.80;;
73382;SDS011;61600;48.126;11.542;2023-05-08T01:47:32;11.18;;;7.32;;
73382;SDS011;61600;48.126;11.542;2023-05-08T01:50:03;11.10;;;6.78;;
73382;SDS011;61600;48.126;11.542;2023-05-08T01:52:44;14.57;;;7.90;;
73382;SDS011;61600;48.126;11.542;2023-05-08T01:55:15;11.98;;;7.30;;
73382;SDS011;61600;48.126;11.542;2023-05-08T01:57:46;11.80;;;7.45;;
73382;SDS011;61600;48.126;11.542;2023-05-08T02:00:16;16.17;;;7.90;;
73382;SDS011;61600;48.126;11.542;2023-05-08T02:02:45;13.18;;;7.18;;
73382;SDS011;61600;48.126;11.542;2023-05-08T02:05:12;13.10;;;7.63;;
73382;SDS011;61600;48.126;11.542;2023-05-08T02:07:39;12.57;;;7.43;;
73382;SDS011;61600;48.126;11.542;2023-05-08T02:10:07;13.65;;;7.60;;
73382;SDS011;61600;48.126;11.542;2023-05-08T02:12:36;13.82;;;8.18;;
73382;SDS011;61600;48.126;11.542;2023-05-08T02:15:03;11.02;;;7.72;;
73382;SDS011;61600;48.126;11.542;2023-05-08T02:17:32;15.88;;;7.85;;
73382;SDS011;61600;48.126;11.542;2023-05-08T02:19:58;13.43;;;8.30;;
73382;SDS011;61600;48.126;11.542;2023-05-08T02:22:27;14.52;;;8.30;;
73382;SDS011;61600;48.126;11.542;2023-05-08T02:24:56;12.60;;;8.15;;
73382;SDS011;61600;48.126;11.542;2023-05-08T02:27:26;13.60;;;7.28;;
73382;SDS011;61600;48.126;11.542;2023-05-08T02:29:53;12.93;;;7.65;;
73382;SDS011;61600;48.126;11.542;2023-05-08T02:32:20;14.05;;;7.80;;
73382;SDS011;61600;48.126;11.542;2023-05-08T02:34:49;13.93;;;8.10;;
73382;SDS011;61600;48.126;11.542;2023-05-08T02:37:17;11.80;;;7.25;;
73382;SDS011;61600;48.126;11.542;2023-05-08T02:39:44;10.82;;;6.97;;
73382;SDS011;61600;48.126;11.542;2023-05-08T02:42:12;15.65;;;7.70;;
73382;SDS011;61600;48.126;11.542;2023-05-08T02:47:21;13.05;;;7.50;;
73382;SDS011;61600;48.126;11.542;2023-05-08T02:49:53;11.75;;;7.05;;
73382;SDS011;61600;48.126;11.542;2023-05-08T02:52:28;11.88;;;6.75;;
73382;SDS011;61600;48.126;11.542;2023-05-08T02:54:59;11.82;;;7.72;;
73382;SDS011;61600;48.126;11.542;2023-05-08T02:57:52;12.43;;;7.60;;
73382;SDS011;61600;48.126;11.542;2023-05-08T03:00:30;15.10;;;7.20;;
73382;SDS011;61600;48.126;11.542;2023-05-08T03:03:16;12.02;;;6.78;;
73382;SDS011;61600;48.126;11.542;2023-05-08T03:05:49;12.07;;;7.18;;
73382;SDS011;61600;48.126;11.542;2023-05-08T03:08:31;10.60;;;6.65;;
73382;SDS011;61600;48.126;11.542;2023-05-08T03:11:01;12.65;;;7.18;;
73382;SDS011;61600;48.126;11.542;2023-05-08T03:13:33;11.38;;;6.90;;
73382;SDS011;61600;48.126;11.542;2023-05-08T03:16:01;12.02;;;7.45;;
73382;SDS011;61600;48.126;11.542;2023-05-08T03:18:30;13.38;;;7.13;;
73382;SDS011;61600;48.126;11.542;2023-05-08T03:20:59;13.25;;;7.07;;
73382;SDS011;61600;48.126;11.542;2023-05-08T03:23:26;11.70;;;6.50;;
73382;SDS011;61600;48.126;11.542;2023-05-08T03:25:56;12.50;;;7.38;;
73382;SDS011;61600;48.126;11.542;2023-05-08T03:28:26;12.85;;;7.35;;
73382;SDS011;61600;48.126;11.542;2023-05-08T03:30:53;11.13;;;6.47;;
73382;SDS011;61600;48.126;11.542;2023-05-08T03:33:21;11.60;;;7.00;;
73382;SDS011;61600;48.126;11.542;2023-05-08T03:35:47;12.07;;;7.10;;
73382;SDS011;61600;48.126;11.542;2023-05-08T03:38:14;10.10;;;6.60;;
73382;SDS011;61600;48.126;11.542;2023-05-08T03:40:43;12.43;;;6.78;;
73382;SDS011;61600;48.126;11.542;2023-05-08T03:43:10;11.55;;;6.57;;
73382;SDS011;61600;48.126;11.542;2023-05-08T03:45:37;9.65;;;6.40;;
73382;SDS011;61600;48.126;11.542;2023-05-08T03:48:05;9.68;;;6.45;;
73382;SDS011;61600;48.126;11.542;2023-05-08T03:50:42;10.75;;;6.65;;
73382;SDS011;61600;48.126;11.542;2023-05-08T03:53:09;10.68;;;5.93;;
73382;SDS011;61600;48.126;11.542;2023-05-08T03:55:35;9.43;;;6.03;;
73382;SDS011;61600;48.126;11.542;2023-05-08T04:05:57;10.10;;;6.25;;
73382;SDS011;61600;48.126;11.542;2023-05-08T04:08:27;10.48;;;6.57;;
73382;SDS011;61600;48.126;11.542;2023-05-08T04:11:05;12.88;;;6.70;;
73382;SDS011;61600;48.126;11.542;2023-05-08T04:13:42;10.00;;;5.90;;
73382;SDS011;61600;48.126;11.542;2023-05-08T04:16:19;10.68;;;6.35;;
73382;SDS011;61600;48.126;11.542;2023-05-08T04:18:49;9.85;;;6.22;;
73382;SDS011;61600;48.126;11.542;2023-05-08T04:21:19;10.75;;;6.10;;
73382;SDS011;61600;48.126;11.542;2023-05-08T04:23:49;10.50;;;6.35;;
73382;SDS011;61600;48.126;11.542;2023-05-08T04:26:17;12.35;;;6.50;;
73382;SDS011;61600;48.126;11.542;2023-05-08T04:28:43;10.55;;;6.20;;
73382;SDS011;61600;48.126;11.542;2023-05-08T04:31:12;9.70;;;5.78;;
73382;SDS011;61600;48.126;11.542;2023-05-08T04:33:39;8.10;;;5.72;;
73382;SDS011;61600;48.126;11.542;2023-05-08T04:36:09;10.35;;;6.15;;
73382;SDS011;61600;48.126;11.542;2023-05-08T04:38:36;11.38;;;5.78;;
73382;SDS011;61600;48.126;11.542;2023-05-08T04:41:02;10.00;;;5.95;;
73382;SDS011;61600;48.126;11.542;2023-05-08T04:43:28;9.10;;;5.75;;
73382;SDS011;61600;48.126;11.542;2023-05-08T04:45:54;9.88;;;6.20;;
73382;SDS011;61600;48.126;11.542;2023-05-08T04:48:19;8.93;;;5.38;;
73382;SDS011;61600;48.126;11.542;2023-05-08T04:50:45;11.07;;;5.93;;
73382;SDS011;61600;48.126;11.542;2023-05-08T04:53:11;9.40;;;5.72;;
73382;SDS011;61600;48.126;11.542;2023-05-08T04:55:37;10.70;;;6.40;;
73382;SDS011;61600;48.126;11.542;2023-05-08T04:58:03;12.60;;;6.85;;
73382;SDS011;61600;48.126;11.542;2023-05-08T05:00:29;9.93;;;5.72;;
73382;SDS011;61600;48.126;11.542;2023-05-08T05:02:54;10.63;;;6.38;;
73382;SDS011;61600;48.126;11.542;2023-05-08T05:05:20;10.85;;;6.57;;
73382;SDS011;61600;48.126;11.542;2023-05-08T05:07:46;9.98;;;6.32;;
73382;SDS011;61600;48.126;11.542;2023-05-08T05:10:12;10.05;;;5.70;;
73382;SDS011;61600;48.126;11.542;2023-05-08T05:12:38;9.75;;;5.85;;
73382;SDS011;61600;48.126;11.542;2023-05-08T05:15:04;12.80;;;6.55;;
73382;SDS011;61600;48.126;11.542;2023-05-08T05:17:30;10.57;;;6.20;;
73382;SDS011;61600;48.126;11.542;2023-05-08T05:19:56;9.65;;;5.85;;
73382;SDS011;61600;48.126;11.542;2023-05-08T05:22:22;12.10;;;6.25;;
73382;SDS011;61600;48.126;11.542;2023-05-08T05:24:47;9.63;;;6.35;;
73382;SDS011;61600;48.126;11.542;2023-05-08T05:27:13;13.25;;;6.63;;
73382;SDS011;61600;48.126;11.542;2023-05-08T05:29:40;11.20;;;5.88;;
73382;SDS011;61600;48.126;11.542;2023-05-08T05:32:06;10.13;;;5.93;;
73382;SDS011;61600;48.126;11.542;2023-05-08T05:34:33;10.45;;;6.18;;
73382;SDS011;61600;48.126;11.542;2023-05-08T05:36:59;10.45;;;6.95;;
73382;SDS011;61600;48.126;11.542;2023-05-08T05:39:25;11.20;;;7.05;;
73382;SDS011;61600;48.126;11.542;2023-05-08T05:41:51;9.88;;;5.93;;
73382;SDS011;61600;48.126;11.542;2023-05-08T05:44:18;9.13;;;5.90;;
73382;SDS011;61600;48.126;11.542;2023-05-08T05:46:44;11.70;;;6.72;;
73382;SDS011;61600;48.126;11.542;2023-05-08T05:49:10;10.75;;;6.13;;
73382;SDS011;61600;48.126;11.542;2023-05-08T05:51:39;10.00;;;6.80;;
73382;SDS011;61600;48.126;11.542;2023-05-08T05:54:05;15.05;;;6.65;;
73382;SDS011;61600;48.126;11.542;2023-05-08T05:56:31;10.05;;;6.40;;
73382;SDS011;61600;48.126;11.542;2023-05-08T05:58:56;11.50;;;6.25;;
73382;SDS011;61600;48.126;11.542;2023-05-08T06:01:22;10.32;;;6.30;;
73382;SDS011;61600;48.126;11.542;2023-05-08T06:03:49;11.68;;;6.60;;
73382;SDS011;61600;48.126;11.542;2023-05-08T06:06:15;10.85;;;6.28;;
73382;SDS011;61600;48.126;11.542;2023-05-08T06:08:40;12.02;;;6.40;;
73382;SDS011;61600;48.126;11.542;2023-05-08T06:11:06;11.85;;;6.90;;
73382;SDS011;61600;48.126;11.542;2023-05-08T06:13:32;9.40;;;5.72;;
73382;SDS011;61600;48.126;11.542;2023-05-08T06:15:58;11.70;;;6.28;;
73382;SDS011;61600;48.126;11.542;2023-05-08T06:18:24;11.38;;;5.82;;
73382;SDS011;61600;48.126;11.542;2023-05-08T06:20:56;10.23;;;6.28;;
73382;SDS011;61600;48.126;11.542;2023-05-08T06:23:23;11.85;;;6.38;;
73382;SDS011;61600;48.126;11.542;2023-05-08T06:25:49;12.00;;;6.47;;
73382;SDS011;61600;48.126;11.542;2023-05-08T06:28:14;11.75;;;6.85;;
73382;SDS011;61600;48.126;11.542;2023-05-08T06:30:40;9.95;;;6.20;;
73382;SDS011;61600;48.126;11.542;2023-05-08T06:33:15;12.45;;;6.65;;
73382;SDS011;61600;48.126;11.542;2023-05-08T06:35:44;12.00;;;6.95;;
73382;SDS011;61600;48.126;11.542;2023-05-08T06:38:13;10.63;;;6.47;;
73382;SDS011;61600;48.126;11.542;2023-05-08T06:40:40;12.20;;;6.30;;
73382;SDS011;61600;48.126;11.542;2023-05-08T06:43:07;10.45;;;6.40;;
73382;SDS011;61600;48.126;11.542;2023-05-08T06:45:33;11.30;;;6.82;;
73382;SDS011;61600;48.126;11.542;2023-05-08T06:47:59;10.18;;;6.50;;
73382;SDS011;61600;48.126;11.542;2023-05-08T06:50:25;13.23;;;7.18;;
73382;SDS011;61600;48.126;11.542;2023-05-08T06:52:53;12.55;;;6.38;;
73382;SDS011;61600;48.126;11.542;2023-05-08T06:55:18;12.02;;;6.72;;
73382;SDS011;61600;48.126;11.542;2023-05-08T06:57:44;12.55;;;7.00;;
73382;SDS011;61600;48.126;11.542;2023-05-08T07:00:10;11.27;;;6.70;;
73382;SDS011;61600;48.126;11.542;2023-05-08T07:02:37;11.15;;;6.65;;
73382;SDS011;61600;48.126;11.542;2023-05-08T07:05:02;11.25;;;6.95;;
73382;SDS011;61600;48.126;11.542;2023-05-08T07:07:29;10.82;;;6.10;;
73382;SDS011;61600;48.126;11.542;2023-05-08T07:09:55;11.02;;;6.43;;
73382;SDS011;61600;48.126;11.542;2023-05-08T07:12:20;9.00;;;5.97;;
73382;SDS011;61600;48.126;11.542;2023-05-08T07:14:46;12.93;;;6.75;;
73382;SDS011;61600;48.126;11.542;2023-05-08T07:17:12;10.50;;;6.28;;
73382;SDS011;61600;48.126;11.542;2023-05-08T07:19:38;15.02;;;6.00;;
73382;SDS011;61600;48.126;11.542;2023-05-08T07:22:04;9.70;;;6.13;;
73382;SDS011;61600;48.126;11.542;2023-05-08T07:24:30;11.88;;;7.00;;
73382;SDS011;61600;48.126;11.542;2023-05-08T07:26:56;9.75;;;5.82;;
73382;SDS011;61600;48.126;11.542;2023-05-08T07:29:24;10.43;;;6.38;;
73382;SDS011;61600;48.126;11.542;2023-05-08T07:31:51;10.25;;;6.70;;
73382;SDS011;61600;48.126;11.542;2023-05-08T07:34:17;10.63;;;6.63;;
73382;SDS011;61600;48.126;11.542;2023-05-08T07:36:43;10.88;;;6.78;;
73382;SDS011;61600;48.126;11.542;2023-05-08T07:39:09;11.20;;;6.40;;
73382;SDS011;61600;48.126;11.542;2023-05-08T07:41:35;15.45;;;8.10;;
73382;SDS011;61600;48.126;11.542;2023-05-08T07:44:01;12.30;;;6.43;;
73382;SDS011;61600;48.126;11.542;2023-05-08T07:46:27;11.77;;;6.53;;
73382;SDS011;61600;48.126;11.542;2023-05-08T07:48:53;10.35;;;6.45;;
73382;SDS011;61600;48.126;11.542;2023-05-08T07:51:19;10.48;;;6.95;;
73382;SDS011;61600;48.126;11.542;2023-05-08T07:53:45;11.07;;;6.75;;
73382;SDS011;61600;48.126;11.542;2023-05-08T07:56:13;10.60;;;7.57;;
73382;SDS011;61600;48.126;11.542;2023-05-08T07:58:39;16.58;;;7.75;;
73382;SDS011;61600;48.126;11.542;2023-05-08T08:01:06;11.60;;;6.75;;
73382;SDS011;61600;48.126;11.542;2023-05-08T08:03:32;15.68;;;6.55;;
73382;SDS011;61600;48.126;11.542;2023-05-08T08:05:58;10.05;;;6.80;;
73382;SDS011;61600;48.126;11.542;2023-05-08T08:08:24;9.50;;;6.53;;
73382;SDS011;61600;48.126;11.542;2023-05-08T08:10:50;10.25;;;6.38;;
73382;SDS011;61600;48.126;11.542;2023-05-08T08:13:16;12.23;;;7.18;;
73382;SDS011;61600;48.126;11.542;2023-05-08T08:15:41;9.77;;;6.28;;
73382;SDS011;61600;48.126;11.542;2023-05-08T08:18:07;11.90;;;6.65;;
73382;SDS011;61600;48.126;11.542;2023-05-08T08:20:33;14.88;;;6.57;;
73382;SDS011;61600;48.126;11.542;2023-05-08T08:22:59;11.02;;;6.47;;
73382;SDS011;61600;48.126;11.542;2023-05-08T08:25:25;10.63;;;6.90;;
73382;SDS011;61600;48.126;11.542;2023-05-08T08:30:17;9.23;;;6.25;;
73382;SDS011;61600;48.126;11.542;2023-05-08T08:32:43;11.25;;;6.13;;
73382;SDS011;61600;48.126;11.542;2023-05-08T08:35:09;11.40;;;6.65;;
73382;SDS011;61600;48.126;11.542;2023-05-08T08:37:35;13.52;;;7.18;;
73382;SDS011;61600;48.126;11.542;2023-05-08T08:40:01;11.38;;;6.57;;
73382;SDS011;61600;48.126;11.542;2023-05-08T08:42:27;13.68;;;6.65;;
73382;SDS011;61600;48.126;11.542;2023-05-08T08:44:54;15.00;;;8.15;;
73382;SDS011;61600;48.126;11.542;2023-05-08T08:47:21;10.70;;;6.82;;
73382;SDS011;61600;48.126;11.542;2023-05-08T08:49:53;10.98;;;6.55;;
73382;SDS011;61600;48.126;11.542;2023-05-08T08:54:48;12.93;;;6.90;;
73382;SDS011;61600;48.126;11.542;2023-05-08T08:57:18;11.18;;;7.03;;
73382;SDS011;61600;48.126;11.542;2023-05-08T08:59:45;11.23;;;7.10;;
73382;SDS011;61600;48.126;11.542;2023-05-08T09:02:11;12.77;;;7.07;;
73382;SDS011;61600;48.126;11.542;2023-05-08T09:04:44;10.20;;;6.90;;
73382;SDS011;61600;48.126;11.542;2023-05-08T09:07:13;12.02;;;7.47;;
73382;SDS011;61600;48.126;11.542;2023-05-08T09:09:39;11.98;;;7.30;;
73382;SDS011;61600;48.126;11.542;2023-05-08T09:12:08;11.32;;;7.10;;
73382;SDS011;61600;48.126;11.542;2023-05-08T09:14:38;11.82;;;7.05;;
73382;SDS011;61600;48.126;11.542;2023-05-08T09:17:04;9.70;;;7.18;;
73382;SDS011;61600;48.126;11.542;2023-05-08T09:19:30;12.77;;;7.63;;
73382;SDS011;61600;48.126;11.542;2023-05-08T09:22:00;11.35;;;7.20;;
73382;SDS011;61600;48.126;11.542;2023-05-08T09:27:26;12.25;;;7.88;;
73382;SDS011;61600;48.126;11.542;2023-05-08T09:32:33;12.43;;;8.02;;
73382;SDS011;61600;48.126;11.542;2023-05-08T09:35:00;10.35;;;7.22;;
73382;SDS011;61600;48.126;11.542;2023-05-08T09:37:26;14.68;;;8.27;;
73382;SDS011;61600;48.126;11.542;2023-05-08T09:42:19;13.52;;;7.30;;
73382;SDS011;61600;48.126;11.542;2023-05-08T09:44:49;14.85;;;7.88;;
73382;SDS011;61600;48.126;11.542;2023-05-08T09:52:21;14.65;;;9.35;;
73382;SDS011;61600;48.126;11.542;2023-05-08T09:57:54;18.77;;;8.57;;
73382;SDS011;61600;48.126;11.542;2023-05-08T10:00:21;12.55;;;8.05;;
73382;SDS011;61600;48.126;11.542;2023-05-08T10:05:29;11.77;;;8.32;;
73382;SDS011;61600;48.126;11.542;2023-05-08T10:07:56;12.13;;;7.85;;
73382;SDS011;61600;48.126;11.542;2023-05-08T10:10:27;15.90;;;9.25;;
73382;SDS011;61600;48.126;11.542;2023-05-08T10:12:55;15.98;;;8.57;;
73382;SDS011;61600;48.126;11.542;2023-05-08T10:15:24;14.25;;;8.75;;
73382;SDS011;61600;48.126;11.542;2023-05-08T10:17:56;12.73;;;8.02;;
73382;SDS011;61600;48.126;11.542;2023-05-08T10:20:24;13.40;;;8.63;;
73382;SDS011;61600;48.126;11.542;2023-05-08T10:22:52;13.90;;;8.45;;
73382;SDS011;61600;48.126;11.542;2023-05-08T10:25:22;13.63;;;8.13;;
73382;SDS011;61600;48.126;11.542;2023-05-08T10:27:53;12.80;;;8.88;;
73382;SDS011;61600;48.126;11.542;2023-05-08T10:30:23;11.80;;;8.73;;
73382;SDS011;61600;48.126;11.542;2023-05-08T10:32:51;13.50;;;8.27;;
73382;SDS011;61600;48.126;11.542;2023-05-08T10:35:20;15.10;;;9.60;;
73382;SDS011;61600;48.126;11.542;2023-05-08T10:37:47;11.65;;;8.40;;
73382;SDS011;61600;48.126;11.542;2023-05-08T10:40:13;16.90;;;9.02;;
73382;SDS011;61600;48.126;11.542;2023-05-08T10:42:46;15.73;;;9.20;;
73382;SDS011;61600;48.126;11.542;2023-05-08T10:45:12;12.05;;;7.97;;
73382;SDS011;61600;48.126;11.542;2023-05-08T10:50:13;16.48;;;9.57;;
73382;SDS011;61600;48.126;11.542;2023-05-08T10:55:45;14.20;;;9.15;;
73382;SDS011;61600;48.126;11.542;2023-05-08T10:58:27;14.75;;;10.23;;
73382;SDS011;61600;48.126;11.542;2023-05-08T11:03:28;14.13;;;9.82;;
73382;SDS011;61600;48.126;11.542;2023-05-08T11:05:55;14.75;;;9.88;;
73382;SDS011;61600;48.126;11.542;2023-05-08T11:08:26;17.45;;;9.77;;
73382;SDS011;61600;48.126;11.542;2023-05-08T11:13:27;16.73;;;9.43;;
73382;SDS011;61600;48.126;11.542;2023-05-08T11:15:54;14.68;;;9.85;;
73382;SDS011;61600;48.126;11.542;2023-05-08T11:18:20;15.63;;;10.20;;
73382;SDS011;61600;48.126;11.542;2023-05-08T11:20:59;13.65;;;9.85;;
73382;SDS011;61600;48.126;11.542;2023-05-08T11:23:29;13.27;;;9.00;;
73382;SDS011;61600;48.126;11.542;2023-05-08T11:26:02;15.70;;;10.18;;
73382;SDS011;61600;48.126;11.542;2023-05-08T11:28:30;17.58;;;10.82;;
73382;SDS011;61600;48.126;11.542;2023-05-08T11:31:00;14.60;;;9.88;;
73382;SDS011;61600;48.126;11.542;2023-05-08T11:33:29;14.65;;;10.13;;
73382;SDS011;61600;48.126;11.542;2023-05-08T11:35:59;15.23;;;10.27;;
73382;SDS011;61600;48.126;11.542;2023-05-08T11:38:37;16.70;;;9.90;;
73382;SDS011;61600;48.126;11.542;2023-05-08T11:41:06;15.32;;;10.60;;
73382;SDS011;61600;48.126;11.542;2023-05-08T11:48:29;16.08;;;10.80;;
73382;SDS011;61600;48.126;11.542;2023-05-08T11:50:55;19.33;;;10.98;;
73382;SDS011;61600;48.126;11.542;2023-05-08T11:53:21;15.63;;;10.10;;
73382;SDS011;61600;48.126;11.542;2023-05-08T11:58:14;16.17;;;10.52;;
73382;SDS011;61600;48.126;11.542;2023-05-08T12:00:41;14.45;;;9.68;;
73382;SDS011;61600;48.126;11.542;2023-05-08T12:03:14;16.80;;;10.20;;
73382;SDS011;61600;48.126;11.542;2023-05-08T12:05:42;13.18;;;9.02;;
73382;SDS011;61600;48.126;11.542;2023-05-08T12:08:08;13.73;;;9.73;;
73382;SDS011;61600;48.126;11.542;2023-05-08T12:10:51;12.98;;;9.77;;
73382;SDS011;61600;48.126;11.542;2023-05-08T12:13:19;15.77;;;9.65;;
73382;SDS011;61600;48.126;11.542;2023-05-08T12:15:52;13.70;;;9.18;;
73382;SDS011;61600;48.126;11.542;2023-05-08T12:18:20;20.27;;;11.65;;
73382;SDS011;61600;48.126;11.542;2023-05-08T12:20:55;14.88;;;10.10;;
73382;SDS011;61600;48.126;11.542;2023-05-08T12:23:23;16.58;;;11.15;;
73382;SDS011;61600;48.126;11.542;2023-05-08T12:25:50;17.27;;;10.68;;
73382;SDS011;61600;48.126;11.542;2023-05-08T12:28:18;15.98;;;9.93;;
73382;SDS011;61600;48.126;11.542;2023-05-08T12:30:44;13.38;;;9.77;;
73382;SDS011;61600;48.126;11.542;2023-05-08T12:33:10;14.88;;;9.70;;
73382;SDS011;61600;48.126;11.542;2023-05-08T12:35:36;15.32;;;8.50;;
73382;SDS011;61600;48.126;11.542;2023-05-08T12:38:04;16.50;;;9.25;;
73382;SDS011;61600;48.126;11.542;2023-05-08T12:42:59;12.13;;;8.80;;
73382;SDS011;61600;48.126;11.542;2023-05-08T12:45:28;13.02;;;8.27;;
73382;SDS011;61600;48.126;11.542;2023-05-08T12:48:02;13.10;;;8.52;;
73382;SDS011;61600;48.126;11.542;2023-05-08T12:50:31;14.88;;;9.25;;
73382;SDS011;61600;48.126;11.542;2023-05-08T12:53:02;14.20;;;9.07;;
73382;SDS011;61600;48.126;11.542;2023-05-08T12:55:31;17.02;;;9.70;;
73382;SDS011;61600;48.126;11.542;2023-05-08T12:58:01;15.13;;;9.98;;
73382;SDS011;61600;48.126;11.542;2023-05-08T13:00:34;13.63;;;9.75;;
73382;SDS011;61600;48.126;11.542;2023-05-08T13:03:01;17.33;;;11.00;;
73382;SDS011;61600;48.126;11.542;2023-05-08T13:05:27;14.32;;;10.45;;
73382;SDS011;61600;48.126;11.542;2023-05-08T13:08:00;18.25;;;11.82;;
73382;SDS011;61600;48.126;11.542;2023-05-08T13:13:30;16.38;;;11.30;;
73382;SDS011;61600;48.126;11.542;2023-05-08T13:16:00;14.65;;;10.43;;
73382;SDS011;61600;48.126;11.542;2023-05-08T13:18:31;17.90;;;10.85;;
73382;SDS011;61600;48.126;11.542;2023-05-08T13:21:01;17.63;;;11.50;;
73382;SDS011;61600;48.126;11.542;2023-05-08T13:23:30;15.00;;;10.07;;
73382;SDS011;61600;48.126;11.542;2023-05-08T13:25:56;15.23;;;10.25;;
73382;SDS011;61600;48.126;11.542;2023-05-08T13:28:22;15.93;;;11.75;;
73382;SDS011;61600;48.126;11.542;2023-05-08T13:30:48;17.85;;;11.65;;
73382;SDS011;61600;48.126;11.542;2023-05-08T13:33:14;17.25;;;11.00;;
73382;SDS011;61600;48.126;11.542;2023-05-08T13:35:40;17.63;;;12.32;;
73382;SDS011;61600;48.126;11.542;2023-05-08T13:38:05;17.65;;;11.27;;
73382;SDS011;61600;48.126;11.542;2023-05-08T13:40:32;18.70;;;12.30;;
73382;SDS011;61600;48.126;11.542;2023-05-08T13:42:58;16.17;;;11.30;;
73382;SDS011;61600;48.126;11.542;2023-05-08T13:45:24;22.50;;;11.80;;
73382;SDS011;61600;48.126;11.542;2023-05-08T13:47:50;16.88;;;10.70;;
73382;SDS011;61600;48.126;11.542;2023-05-08T13:50:16;16.67;;;11.07;;
73382;SDS011;61600;48.126;11.542;2023-05-08T13:52:45;15.98;;;11.35;;
73382;SDS011;61600;48.126;11.542;2023-05-08T13:55:12;16.30;;;11.00;;
73382;SDS011;61600;48.126;11.542;2023-05-08T13:57:38;15.02;;;10.85;;
73382;SDS011;61600;48.126;11.542;2023-05-08T14:00:05;16.02;;;10.48;;
73382;SDS011;61600;48.126;11.542;2023-05-08T14:02:32;15.93;;;10.90;;
73382;SDS011;61600;48.126;11.542;2023-05-08T14:04:57;15.35;;;10.65;;
73382;SDS011;61600;48.126;11.542;2023-05-08T14:07:23;16.42;;;10.40;;
73382;SDS011;61600;48.126;11.542;2023-05-08T14:09:49;17.83;;;11.32;;
73382;SDS011;61600;48.126;11.542;2023-05-08T14:12:15;14.65;;;10.82;;
73382;SDS011;61600;48.126;11.542;2023-05-08T14:14:40;14.98;;;9.60;;
73382;SDS011;61600;48.126;11.542;2023-05-08T14:17:06;17.08;;;11.98;;
73382;SDS011;61600;48.126;11.542;2023-05-08T14:19:32;15.48;;;10.15;;
73382;SDS011;61600;48.126;11.542;2023-05-08T14:21:58;16.42;;;9.75;;
73382;SDS011;61600;48.126;11.542;2023-05-08T14:24:24;14.18;;;9.68;;
73382;SDS011;61600;48.126;11.542;2023-05-08T14:26:50;14.25;;;9.30;;
73382;SDS011;61600;48.126;11.542;2023-05-08T14:29:16;12.13;;;8.32;;
73382;SDS011;61600;48.126;11.542;2023-05-08T14:34:09;12.13;;;8.52;;
73382;SDS011;61600;48.126;11.542;2023-05-08T14:36:35;16.75;;;8.73;;
73382;SDS011;61600;48.126;11.542;2023-05-08T14:39:01;13.52;;;8.38;;
73382;SDS011;61600;48.126;11.542;2023-05-08T14:41:27;13.77;;;8.02;;
73382;SDS011;61600;48.126;11.542;2023-05-08T14:43:54;12.48;;;7.82;;
73382;SDS011;61600;48.126;11.542;2023-05-08T14:46:20;12.40;;;8.05;;
73382;SDS011;61600;48.126;11.542;2023-05-08T14:48:46;10.93;;;7.82;;
73382;SDS011;61600;48.126;11.542;2023-05-08T14:51:12;11.00;;;6.75;;
73382;SDS011;61600;48.126;11.542;2023-05-08T14:56:05;13.88;;;6.97;;
73382;SDS011;61600;48.126;11.542;2023-05-08T14:58:31;13.02;;;7.28;;
73382;SDS011;61600;48.126;11.542;2023-05-08T15:00:57;9.93;;;5.80;;
73382;SDS011;61600;48.126;11.542;2023-05-08T15:03:23;13.55;;;6.43;;
73382;SDS011;61600;48.126;11.542;2023-05-08T15:05:49;12.73;;;7.25;;
73382;SDS011;61600;48.126;11.542;2023-05-08T15:08:15;11.07;;;6.97;;
73382;SDS011;61600;48.126;11.542;2023-05-08T15:10:41;12.98;;;7.72;;
73382;SDS011;61600;48.126;11.542;2023-05-08T15:13:06;11.55;;;7.35;;
73382;SDS011;61600;48.126;11.542;2023-05-08T15:15:32;11.77;;;7.40;;
73382;SDS011;61600;48.126;11.542;2023-05-08T15:17:58;10.18;;;7.72;;
73382;SDS011;61600;48.126;11.542;2023-05-08T15:20:24;11.05;;;7.50;;
73382;SDS011;61600;48.126;11.542;2023-05-08T15:22:50;12.73;;;7.90;;
73382;SDS011;61600;48.126;11.542;2023-05-08T15:25:16;11.15;;;7.07;;
73382;SDS011;61600;48.126;11.542;2023-05-08T15:27:42;12.55;;;6.72;;
73382;SDS011;61600;48.126;11.542;2023-05-08T15:30:08;11.70;;;7.25;;
73382;SDS011;61600;48.126;11.542;2023-05-08T15:32:34;11.98;;;7.72;;
73382;SDS011;61600;48.126;11.542;2023-05-08T15:35:00;11.93;;;7.47;;
73382;SDS011;61600;48.126;11.542;2023-05-08T15:37:26;12.60;;;7.60;;
73382;SDS011;61600;48.126;11.542;2023-05-08T15:39:52;12.32;;;7.88;;
73382;SDS011;61600;48.126;11.542;2023-05-08T15:42:18;13.23;;;7.72;;